createdAt,value
2024-01-07T00:00:17.228Z,95898.44
2024-01-07T00:02:20.928Z,95897.63
2024-01-07T00:04:23.983Z,95904.53
2024-01-07T00:06:25.627Z,95900.25
2024-01-07T00:08:27.175Z,95900.91
2024-01-07T00:10:28.694Z,95901.09
2024-01-07T00:12:30.369Z,95903.88
2024-01-07T00:14:31.969Z,95896.63
2024-01-07T00:16:33.490Z,95905.19
2024-01-07T00:18:35.160Z,95913.59
2024-01-07T00:20:38.080Z,95902.22
2024-01-07T00:22:39.594Z,95908.00
2024-01-07T00:24:41.175Z,95902.56
2024-01-07T00:26:42.866Z,95909.00
2024-01-07T00:28:44.467Z,95903.22
2024-01-07T00:30:46.034Z,95901.91
2024-01-07T00:32:47.623Z,95907.66
2024-01-07T00:34:51.178Z,95891.19
2024-01-07T00:36:55.807Z,95907.19
2024-01-07T00:38:57.344Z,95907.00
2024-01-07T00:40:58.892Z,95908.81
2024-01-07T00:43:00.438Z,95909.81
2024-01-07T00:45:02.083Z,95905.50
2024-01-07T00:47:04.104Z,95909.63
2024-01-07T00:49:05.773Z,95907.84
2024-01-07T00:51:07.310Z,95912.75
2024-01-07T00:53:10.185Z,95906.00
2024-01-07T00:55:11.743Z,95906.16
2024-01-07T00:57:13.460Z,95915.06
2024-01-07T00:59:14.953Z,95904.34
2024-01-07T01:01:16.738Z,95900.84
2024-01-07T01:03:18.336Z,95916.97
2024-01-07T01:05:20.052Z,95915.00
2024-01-07T01:07:21.669Z,95913.81
2024-01-07T01:09:24.570Z,95917.78
2024-01-07T01:11:26.104Z,95915.00
2024-01-07T01:13:27.655Z,95915.66
2024-01-07T01:15:29.219Z,95910.06
2024-01-07T01:17:31.362Z,95921.91
2024-01-07T01:19:33.054Z,95919.13
2024-01-07T01:21:34.714Z,95916.00
2024-01-07T01:23:36.307Z,95922.63
2024-01-07T01:25:39.266Z,95916.31
2024-01-07T01:27:40.919Z,95922.28
2024-01-07T01:29:42.501Z,95923.94
2024-01-07T01:31:44.134Z,95927.06
2024-01-07T01:33:45.927Z,95922.63
2024-01-07T01:35:47.544Z,95922.63
2024-01-07T01:37:49.173Z,95931.78
2024-01-07T01:39:50.802Z,95934.66
2024-01-07T01:41:53.688Z,95926.91
2024-01-07T01:43:59.053Z,95928.41
2024-01-07T01:46:00.881Z,95924.09
2024-01-07T01:48:02.687Z,95932.00
2024-01-07T01:50:05.638Z,95930.88
2024-01-07T01:52:07.364Z,95938.88
2024-01-07T01:54:09.098Z,95933.59
2024-01-07T01:56:10.741Z,95928.81
2024-01-07T01:58:14.320Z,95929.78
2024-01-07T02:00:16.573Z,95923.84
2024-01-07T02:02:18.335Z,95932.59
2024-01-07T02:04:20.056Z,95931.53
2024-01-07T02:06:22.724Z,95928.72
2024-01-07T02:08:26.064Z,95924.16
2024-01-07T02:10:27.586Z,95929.75
2024-01-07T02:12:29.217Z,95929.22
2024-01-07T02:14:32.091Z,95928.06
2024-01-07T02:16:33.999Z,95929.41
2024-01-07T02:18:35.851Z,95933.19
2024-01-07T02:20:37.492Z,95925.31
2024-01-07T02:22:39.054Z,95934.56
2024-01-07T02:24:41.987Z,95936.34
2024-01-07T02:26:43.830Z,95929.78
2024-01-07T02:28:45.663Z,95934.22
2024-01-07T02:30:47.608Z,95934.06
2024-01-07T02:32:49.478Z,95929.31
2024-01-07T02:34:51.342Z,95934.03
2024-01-07T02:36:53.306Z,95938.34
2024-01-07T02:38:55.156Z,95936.03
2024-01-07T02:40:58.168Z,95925.66
2024-01-07T02:42:59.923Z,95931.44
2024-01-07T02:45:01.696Z,95930.78
2024-01-07T02:47:04.051Z,95935.84
2024-01-07T02:49:05.901Z,95934.38
2024-01-07T02:51:09.354Z,95935.19
2024-01-07T02:53:10.912Z,95931.09
2024-01-07T02:55:12.965Z,95932.75
2024-01-07T02:57:15.957Z,95923.84
2024-01-07T02:59:17.642Z,95941.16
2024-01-07T03:01:22.541Z,95928.13
2024-01-07T03:03:24.730Z,95932.41
2024-01-07T03:05:26.724Z,95938.03
2024-01-07T03:07:29.008Z,95938.16
2024-01-07T03:09:30.546Z,95938.34
2024-01-07T03:11:32.075Z,95940.16
2024-01-07T03:13:35.140Z,95941.66
2024-01-07T03:15:36.734Z,95944.78
2024-01-07T03:17:38.378Z,95939.00
2024-01-07T03:19:40.021Z,95948.25
2024-01-07T03:21:41.566Z,95946.59
2024-01-07T03:23:43.140Z,95951.53
2024-01-07T03:25:44.672Z,95947.22
2024-01-07T03:27:46.169Z,95949.88
2024-01-07T03:29:49.078Z,95954.16
2024-01-07T03:31:50.784Z,95956.31
2024-01-07T03:33:52.542Z,95956.63
2024-01-07T03:35:54.169Z,95933.66
2024-01-07T03:37:55.681Z,95948.38
2024-01-07T03:39:57.417Z,95959.41
2024-01-07T03:41:58.980Z,95953.13
2024-01-07T03:44:00.638Z,95960.38
2024-01-07T03:46:03.628Z,95953.47
2024-01-07T03:48:05.772Z,95951.50
2024-01-07T03:50:07.743Z,95957.59
2024-01-07T03:52:09.850Z,95953.81
2024-01-07T03:54:11.465Z,95957.94
2024-01-07T03:56:13.025Z,95957.44
2024-01-07T03:58:14.610Z,95952.75
2024-01-07T04:00:16.375Z,95956.06
2024-01-07T04:02:19.274Z,95953.44
2024-01-07T04:04:20.918Z,95954.28
2024-01-07T04:06:22.486Z,95956.13
2024-01-07T04:08:24.054Z,95954.00
2024-01-07T04:10:25.588Z,95958.22
2024-01-07T04:12:27.209Z,95957.75
2024-01-07T04:14:28.780Z,95964.50
2024-01-07T04:16:30.468Z,95968.31
2024-01-07T04:18:33.513Z,95959.53
2024-01-07T04:20:35.111Z,95961.03
2024-01-07T04:22:36.660Z,95965.34
2024-01-07T04:24:41.711Z,95966.00
2024-01-07T04:26:43.260Z,95956.31
2024-01-07T04:28:45.463Z,95974.75
2024-01-07T04:30:47.048Z,95971.69
2024-01-07T04:32:48.799Z,95969.31
2024-01-07T04:34:51.856Z,95968.63
2024-01-07T04:36:53.488Z,95962.41
2024-01-07T04:38:55.025Z,95963.22
2024-01-07T04:40:56.592Z,95972.59
2024-01-07T04:42:58.192Z,95974.59
2024-01-07T04:44:59.786Z,95976.53
2024-01-07T04:47:01.350Z,95984.25
2024-01-07T04:49:03.000Z,95985.06
2024-01-07T04:51:06.031Z,95986.41
2024-01-07T04:53:07.529Z,95984.13
2024-01-07T04:55:09.345Z,95994.34
2024-01-07T04:57:10.944Z,95994.81
2024-01-07T04:59:12.454Z,95993.00
2024-01-07T05:01:14.080Z,95998.94
2024-01-07T05:03:15.691Z,95987.59
2024-01-07T05:05:17.294Z,95994.19
2024-01-07T05:07:20.272Z,95988.09
2024-01-07T05:09:21.859Z,95994.63
2024-01-07T05:11:23.404Z,95993.16
2024-01-07T05:13:24.907Z,95996.66
2024-01-07T05:15:26.499Z,95992.97
2024-01-07T05:17:29.828Z,95998.09
2024-01-07T05:19:31.384Z,96004.84
2024-01-07T05:21:32.969Z,96010.28
2024-01-07T05:23:35.882Z,96013.03
2024-01-07T05:25:37.412Z,96009.41
2024-01-07T05:27:38.998Z,96006.81
2024-01-07T05:29:40.565Z,96011.59
2024-01-07T05:31:42.271Z,96008.16
2024-01-07T05:33:44.441Z,96008.78
2024-01-07T05:35:46.014Z,96008.50
2024-01-07T05:37:47.557Z,96007.13
2024-01-07T05:39:50.489Z,96006.44
2024-01-07T05:41:52.036Z,96017.78
2024-01-07T05:43:53.598Z,96013.47
2024-01-07T05:45:55.132Z,96013.97
2024-01-07T05:47:56.739Z,96026.97
2024-01-07T05:49:58.405Z,96018.72
2024-01-07T05:52:00.049Z,96032.03
2024-01-07T05:54:01.576Z,96023.69
2024-01-07T05:56:05.047Z,96022.22
2024-01-07T05:58:06.709Z,96033.44
2024-01-07T06:00:09.252Z,96026.81
2024-01-07T06:02:11.076Z,96029.06
2024-01-07T06:04:12.709Z,96027.50
2024-01-07T06:06:14.913Z,96032.69
2024-01-07T06:08:16.529Z,96033.53
2024-01-07T06:10:18.103Z,96038.13
2024-01-07T06:12:21.008Z,96031.34
2024-01-07T06:14:22.683Z,96038.25
2024-01-07T06:16:24.193Z,96035.66
2024-01-07T06:18:25.905Z,96036.47
2024-01-07T06:20:27.578Z,96035.19
2024-01-07T06:22:29.084Z,96032.03
2024-01-07T06:24:30.612Z,96033.69
2024-01-07T06:26:32.205Z,96047.38
2024-01-07T06:28:35.062Z,96039.94
2024-01-07T06:30:36.806Z,96042.25
2024-01-07T06:32:38.455Z,96053.69
2024-01-07T06:34:40.029Z,96056.13
2024-01-07T06:36:41.829Z,96045.88
2024-01-07T06:38:43.378Z,96063.13
2024-01-07T06:40:44.871Z,96055.13
2024-01-07T06:42:46.568Z,96057.03
2024-01-07T06:44:49.458Z,96071.47
2024-01-07T06:46:51.020Z,96066.47
2024-01-07T06:48:52.720Z,96071.28
2024-01-07T06:50:54.291Z,96063.84
2024-01-07T06:52:55.772Z,96075.81
2024-01-07T06:54:57.317Z,96081.19
2024-01-07T06:56:58.931Z,96073.34
2024-01-07T06:59:00.553Z,96077.94
2024-01-07T07:01:03.872Z,96079.63
2024-01-07T07:03:05.611Z,96090.78
2024-01-07T07:05:07.847Z,96088.19
2024-01-07T07:07:09.624Z,96097.75
2024-01-07T07:09:11.207Z,96095.16
2024-01-07T07:11:12.801Z,96091.41
2024-01-07T07:13:14.342Z,96100.94
2024-01-07T07:15:15.880Z,96097.69
2024-01-07T07:17:18.808Z,96107.28
2024-01-07T07:19:20.428Z,96104.09
2024-01-07T07:21:21.979Z,96109.25
2024-01-07T07:23:23.509Z,96113.75
2024-01-07T07:25:25.148Z,96119.56
2024-01-07T07:27:26.936Z,96117.91
2024-01-07T07:29:28.465Z,96122.34
2024-01-07T07:31:30.083Z,96123.47
2024-01-07T07:33:33.144Z,96126.78
2024-01-07T07:35:34.829Z,96125.44
2024-01-07T07:37:36.486Z,96126.94
2024-01-07T07:39:38.152Z,96129.72
2024-01-07T07:41:39.757Z,96134.28
2024-01-07T07:43:41.420Z,96135.44
2024-01-07T07:45:43.055Z,96140.09
2024-01-07T07:47:45.493Z,96140.41
2024-01-07T07:49:48.707Z,96141.38
2024-01-07T07:51:50.354Z,96142.09
2024-01-07T07:53:51.929Z,96143.41
2024-01-07T07:55:53.436Z,96142.41
2024-01-07T07:57:55.080Z,96147.16
2024-01-07T07:59:56.675Z,96149.63
2024-01-07T08:01:58.366Z,96153.16
2024-01-07T08:04:00.078Z,96147.06
2024-01-07T08:06:03.296Z,96156.69
2024-01-07T08:08:05.779Z,96148.06
2024-01-07T08:10:08.549Z,96160.06
2024-01-07T08:12:10.195Z,96149.25
2024-01-07T08:14:11.736Z,96156.47
2024-01-07T08:16:13.359Z,96158.94
2024-01-07T08:18:14.987Z,96168.63
2024-01-07T08:20:16.774Z,96165.31
2024-01-07T08:22:19.723Z,96168.03
2024-01-07T08:24:21.261Z,96169.63
2024-01-07T08:26:22.896Z,96170.28
2024-01-07T08:28:24.515Z,96168.09
2024-01-07T08:30:26.073Z,96167.81
2024-01-07T08:32:27.739Z,96168.72
2024-01-07T08:34:29.486Z,96175.94
2024-01-07T08:36:31.254Z,96180.81
2024-01-07T08:38:34.154Z,96168.03
2024-01-07T08:40:35.726Z,96178.78
2024-01-07T08:42:37.679Z,96176.16
2024-01-07T08:44:39.247Z,96176.69
2024-01-07T08:46:40.744Z,96180.75
2024-01-07T08:48:42.436Z,96184.56
2024-01-07T08:50:44.089Z,96175.84
2024-01-07T08:52:45.616Z,96182.09
2024-01-07T08:54:48.511Z,96187.72
2024-01-07T08:56:50.081Z,96189.38
2024-01-07T08:58:51.630Z,96193.28
2024-01-07T09:00:53.271Z,96192.69
2024-01-07T09:02:54.857Z,96194.63
2024-01-07T09:04:56.381Z,96197.66
2024-01-07T09:06:57.895Z,96206.81
2024-01-07T09:08:59.427Z,96205.91
2024-01-07T09:11:04.661Z,96204.25
2024-01-07T09:13:06.381Z,96212.53
2024-01-07T09:15:08.789Z,96208.63
2024-01-07T09:17:10.358Z,96218.69
2024-01-07T09:19:14.535Z,96220.34
2024-01-07T09:21:16.662Z,96222.38
2024-01-07T09:23:18.196Z,96224.78
2024-01-07T09:25:19.973Z,96232.91
2024-01-07T09:27:22.925Z,96235.34
2024-01-07T09:29:24.495Z,96226.94
2024-01-07T09:31:26.168Z,96238.94
2024-01-07T09:33:27.857Z,96231.75
2024-01-07T09:35:29.509Z,96236.72
2024-01-07T09:37:31.081Z,96242.41
2024-01-07T09:39:32.614Z,96243.81
2024-01-07T09:41:34.204Z,96241.97
2024-01-07T09:43:37.268Z,96240.22
2024-01-07T09:45:39.743Z,96242.47
2024-01-07T09:47:42.611Z,96244.59
2024-01-07T09:49:44.931Z,96242.25
2024-01-07T09:51:46.690Z,96239.41
2024-01-07T09:53:49.797Z,96236.41
2024-01-07T09:55:55.736Z,96243.72
2024-01-07T09:57:57.296Z,96241.13
2024-01-07T10:00:01.223Z,96243.25
2024-01-07T10:02:03.297Z,96242.13
2024-01-07T10:04:05.268Z,96238.50
2024-01-07T10:06:07.129Z,96240.31
2024-01-07T10:08:08.925Z,96237.25
2024-01-07T10:10:17.846Z,96234.44
2024-01-07T10:12:23.880Z,96231.91
2024-01-07T10:14:25.432Z,96232.56
2024-01-07T10:16:28.285Z,96229.03
2024-01-07T10:18:31.625Z,96228.78
2024-01-07T10:20:33.907Z,96236.66
2024-01-07T10:22:35.499Z,96237.88
2024-01-07T10:24:38.129Z,96234.38
2024-01-07T10:26:40.938Z,96226.72
2024-01-07T10:28:42.477Z,96233.09
2024-01-07T10:30:49.884Z,96236.34
2024-01-07T10:32:56.732Z,96241.28
2024-01-07T10:35:04.335Z,96238.75
2024-01-07T10:37:06.886Z,96242.06
2024-01-07T10:39:08.936Z,96240.97
2024-01-07T10:41:12.268Z,96234.63
2024-01-07T10:43:16.401Z,96241.97
2024-01-07T10:45:17.814Z,96235.59
2024-01-07T10:47:23.175Z,96245.69
2024-01-07T10:49:27.544Z,96233.16
2024-01-07T10:51:29.644Z,96252.59
2024-01-07T10:53:34.789Z,96247.13
2024-01-07T10:55:41.211Z,96246.84
2024-01-07T10:57:44.440Z,96251.75
2024-01-07T10:59:46.577Z,96252.63
2024-01-07T11:01:48.233Z,96262.09
2024-01-07T11:03:58.421Z,96265.13
2024-01-07T11:06:10.338Z,96257.94
2024-01-07T11:08:22.994Z,96264.09
2024-01-07T11:10:38.715Z,96266.28
2024-01-07T11:12:54.710Z,96269.00
2024-01-07T11:14:56.243Z,96270.41
2024-01-07T11:17:00.882Z,96275.66
2024-01-07T11:19:02.634Z,96266.25
2024-01-07T11:21:05.666Z,96271.50
2024-01-07T11:23:27.602Z,96276.47
2024-01-07T11:25:30.723Z,96271.13
2024-01-07T11:27:33.088Z,96268.78
2024-01-07T11:29:34.651Z,96269.63
2024-01-07T11:31:46.724Z,96275.22
2024-01-07T11:33:49.890Z,96271.31
2024-01-07T11:35:58.233Z,96274.78
2024-01-07T11:38:01.609Z,96270.75
2024-01-07T11:40:07.821Z,96259.38
2024-01-07T11:42:15.416Z,96271.22
2024-01-07T11:44:16.947Z,96267.63
2024-01-07T11:46:18.625Z,96275.06
2024-01-07T11:48:20.457Z,96276.72
2024-01-07T11:50:26.496Z,96269.22
2024-01-07T11:52:28.019Z,96273.56
2024-01-07T11:54:32.261Z,96274.78
2024-01-07T11:56:33.983Z,96265.63
2024-01-07T11:58:35.522Z,96273.41
2024-01-07T12:00:37.345Z,96271.91
2024-01-07T12:02:41.932Z,96271.91
2024-01-07T12:04:43.516Z,96272.59
2024-01-07T12:06:45.724Z,96269.53
2024-01-07T12:08:47.546Z,96279.47
2024-01-07T12:10:50.471Z,96266.50
2024-01-07T12:12:53.717Z,96275.66
2024-01-07T12:14:55.903Z,96275.41
2024-01-07T12:16:57.519Z,96268.53
2024-01-07T12:18:59.163Z,96277.91
2024-01-07T12:21:01.176Z,96272.66
2024-01-07T12:23:09.627Z,96277.13
2024-01-07T12:25:11.369Z,96280.00
2024-01-07T12:27:14.599Z,96275.28
2024-01-07T12:29:16.707Z,96274.91
2024-01-07T12:31:18.418Z,96278.63
2024-01-07T12:33:20.545Z,96281.22
2024-01-07T12:35:22.218Z,96284.25
2024-01-07T12:37:23.784Z,96283.13
2024-01-07T12:39:28.173Z,96282.59
2024-01-07T12:41:30.252Z,96281.22
2024-01-07T12:43:33.476Z,96285.41
2024-01-07T12:45:35.103Z,96287.53
2024-01-07T12:47:36.644Z,96271.63
2024-01-07T12:49:38.283Z,96282.97
2024-01-07T12:51:39.928Z,96276.06
2024-01-07T12:53:41.507Z,96278.13
2024-01-07T12:55:43.025Z,96285.16
2024-01-07T12:57:44.548Z,96286.00
2024-01-07T12:59:47.442Z,96284.91
2024-01-07T13:01:49.237Z,96286.16
2024-01-07T13:03:51.132Z,96292.09
2024-01-07T13:05:52.897Z,96295.69
2024-01-07T13:08:00.988Z,96297.47
2024-01-07T13:10:02.653Z,96298.59
2024-01-07T13:12:04.720Z,96300.94
2024-01-07T13:14:06.468Z,96307.03
2024-01-07T13:16:09.865Z,96304.25
2024-01-07T13:18:12.105Z,96298.44
2024-01-07T13:20:14.036Z,96308.41
2024-01-07T13:22:15.655Z,96308.66
2024-01-07T13:24:17.632Z,96306.88
2024-01-07T13:26:20.335Z,96310.03
2024-01-07T13:28:23.576Z,96313.91
2024-01-07T13:30:26.712Z,96319.59
2024-01-07T13:32:30.176Z,96315.84
2024-01-07T13:34:31.962Z,96327.16
2024-01-07T13:36:34.255Z,96329.97
2024-01-07T13:38:35.896Z,96323.75
2024-01-07T13:40:37.677Z,96319.44
2024-01-07T13:42:39.266Z,96327.03
2024-01-07T13:44:40.866Z,96321.66
2024-01-07T13:46:42.445Z,96320.16
2024-01-07T13:48:45.449Z,96331.63
2024-01-07T13:50:47.032Z,96339.34
2024-01-07T13:52:48.696Z,96343.50
2024-01-07T13:54:51.507Z,96339.78
2024-01-07T13:56:53.858Z,96351.19
2024-01-07T13:58:55.655Z,96355.66
2024-01-07T14:00:57.315Z,96350.41
2024-01-07T14:02:58.990Z,96353.59
2024-01-07T14:05:02.011Z,96357.44
2024-01-07T14:07:03.861Z,96355.25
2024-01-07T14:09:05.479Z,96358.97
2024-01-07T14:11:07.085Z,96359.53
2024-01-07T14:13:08.933Z,96361.47
2024-01-07T14:15:10.537Z,96360.91
2024-01-07T14:17:12.133Z,96372.50
2024-01-07T14:19:14.057Z,96362.25
2024-01-07T14:21:17.013Z,96370.25
2024-01-07T14:23:18.592Z,96362.50
2024-01-07T14:25:20.310Z,96373.44
2024-01-07T14:27:21.857Z,96375.19
2024-01-07T14:29:23.828Z,96380.88
2024-01-07T14:31:25.458Z,96384.34
2024-01-07T14:33:27.180Z,96381.59
2024-01-07T14:35:28.839Z,96385.31
2024-01-07T14:37:31.868Z,96381.72
2024-01-07T14:39:33.554Z,96395.38
2024-01-07T14:41:46.888Z,96398.16
2024-01-07T14:43:48.660Z,96393.88
2024-01-07T14:45:50.292Z,96407.06
2024-01-07T14:47:51.998Z,96402.22
2024-01-07T14:49:53.562Z,96401.41
2024-01-07T14:51:55.421Z,96400.03
2024-01-07T14:53:58.463Z,96409.72
2024-01-07T14:56:00.025Z,96405.09
2024-01-07T14:58:01.630Z,96411.03
2024-01-07T15:00:04.263Z,96419.75
2024-01-07T15:02:06.527Z,96418.50
2024-01-07T15:04:08.438Z,96418.78
2024-01-07T15:06:10.039Z,96415.84
2024-01-07T15:08:11.554Z,96422.19
2024-01-07T15:10:17.607Z,96433.53
2024-01-07T15:12:19.319Z,96435.72
2024-01-07T15:14:20.902Z,96431.00
2024-01-07T15:16:22.462Z,96425.91
2024-01-07T15:18:24.280Z,96426.22
2024-01-07T15:20:25.987Z,96438.72
2024-01-07T15:22:27.623Z,96443.00
2024-01-07T15:24:29.263Z,96445.09
2024-01-07T15:26:32.259Z,96443.09
2024-01-07T15:28:33.949Z,96449.38
2024-01-07T15:30:35.684Z,96438.06
2024-01-07T15:32:37.354Z,96442.09
2024-01-07T15:34:39.082Z,96459.56
2024-01-07T15:36:40.742Z,96458.78
2024-01-07T15:38:42.257Z,96462.03
2024-01-07T15:40:43.965Z,96464.00
2024-01-07T15:42:46.896Z,96471.47
2024-01-07T15:44:49.760Z,96475.31
2024-01-07T15:46:52.698Z,96472.91
2024-01-07T15:48:58.834Z,96474.19
2024-01-07T15:51:02.193Z,96470.88
2024-01-07T15:53:06.844Z,96479.47
2024-01-07T15:55:09.753Z,96477.94
2024-01-07T15:57:11.374Z,96478.22
2024-01-07T15:59:14.300Z,96483.00
2024-01-07T16:01:15.946Z,96467.94
2024-01-07T16:03:17.604Z,96487.03
2024-01-07T16:05:19.290Z,96486.16
2024-01-07T16:07:20.989Z,96493.09
2024-01-07T16:09:22.499Z,96476.94
2024-01-07T16:11:24.148Z,96489.41
2024-01-07T16:13:26.015Z,96498.09
2024-01-07T16:15:29.006Z,96501.38
2024-01-07T16:17:30.760Z,96498.75
2024-01-07T16:19:32.527Z,96500.66
2024-01-07T16:21:34.259Z,96505.91
2024-01-07T16:23:35.823Z,96509.47
2024-01-07T16:25:37.363Z,96514.72
2024-01-07T16:27:39.020Z,96521.88
2024-01-07T16:29:45.308Z,96513.06
2024-01-07T16:31:49.409Z,96516.06
2024-01-07T16:33:51.101Z,96527.88
2024-01-07T16:35:52.737Z,96528.19
2024-01-07T16:37:54.339Z,96533.50
2024-01-07T16:39:56.031Z,96537.59
2024-01-07T16:41:57.576Z,96535.16
2024-01-07T16:43:59.109Z,96542.09
2024-01-07T16:46:00.945Z,96550.66
2024-01-07T16:48:04.707Z,96543.00
2024-01-07T16:52:11.605Z,96542.59
2024-01-07T16:54:13.308Z,96544.84
2024-01-07T16:56:17.047Z,96549.06
2024-01-07T16:58:18.821Z,96543.53
2024-01-07T17:00:20.794Z,96547.06
2024-01-07T17:02:23.040Z,96541.44
2024-01-07T17:04:26.049Z,96550.03
2024-01-07T17:06:27.629Z,96557.53
2024-01-07T17:08:29.252Z,96562.13
2024-01-07T17:10:30.794Z,96559.97
2024-01-07T17:12:32.331Z,96563.72
2024-01-07T17:14:33.825Z,96569.16
2024-01-07T17:16:35.384Z,96566.81
2024-01-07T17:18:37.039Z,96572.22
2024-01-07T17:20:40.001Z,96575.81
2024-01-07T17:22:42.525Z,96576.75
2024-01-07T17:24:44.135Z,96582.69
2024-01-07T17:26:45.699Z,96582.00
2024-01-07T17:28:48.252Z,96594.59
2024-01-07T17:30:49.864Z,96588.44
2024-01-07T17:32:54.262Z,96583.91
2024-01-07T17:34:56.886Z,96584.09
2024-01-07T17:37:00.218Z,96590.75
2024-01-07T17:39:01.866Z,96582.69
2024-01-07T17:41:03.518Z,96594.88
2024-01-07T17:43:05.081Z,96587.16
2024-01-07T17:45:07.209Z,96596.50
2024-01-07T17:47:08.795Z,96592.22
2024-01-07T17:49:10.429Z,96605.56
2024-01-07T17:51:11.978Z,96605.81
2024-01-07T17:53:14.886Z,96613.94
2024-01-07T17:55:16.631Z,96608.22
2024-01-07T17:57:18.164Z,96608.56
2024-01-07T17:59:19.763Z,96612.16
2024-01-07T18:01:21.341Z,96608.81
2024-01-07T18:03:22.923Z,96622.72
2024-01-07T18:05:24.651Z,96620.59
2024-01-07T18:07:26.312Z,96620.34
2024-01-07T18:09:29.220Z,96623.94
2024-01-07T18:11:30.798Z,96622.97
2024-01-07T18:13:32.420Z,96625.34
2024-01-07T18:15:34.044Z,96628.44
2024-01-07T18:17:35.647Z,96626.06
2024-01-07T18:19:37.374Z,96627.25
2024-01-07T18:21:38.919Z,96624.16
2024-01-07T18:23:40.422Z,96628.91
2024-01-07T18:25:43.432Z,96634.16
2024-01-07T18:27:45.029Z,96634.88
2024-01-07T18:29:46.583Z,96637.66
2024-01-07T18:31:48.163Z,96651.97
2024-01-07T18:33:49.791Z,96637.97
2024-01-07T18:35:51.530Z,96638.91
2024-01-07T18:37:53.143Z,96651.28
2024-01-07T18:39:54.712Z,96657.00
2024-01-07T18:41:57.645Z,96656.50
2024-01-07T18:43:59.227Z,96654.84
2024-01-07T18:46:00.802Z,96659.72
2024-01-07T18:48:02.460Z,96667.69
2024-01-07T18:50:04.654Z,96669.09
2024-01-07T18:52:06.564Z,96658.34
2024-01-07T18:54:08.110Z,96669.41
2024-01-07T18:56:10.222Z,96678.22
2024-01-07T18:58:13.675Z,96671.88
2024-01-07T19:00:16.182Z,96670.47
2024-01-07T19:02:17.778Z,96673.16
2024-01-07T19:04:19.442Z,96675.94
2024-01-07T19:06:20.985Z,96680.94
2024-01-07T19:08:22.727Z,96672.66
2024-01-07T19:10:24.307Z,96689.13
2024-01-07T19:12:25.915Z,96696.84
2024-01-07T19:14:28.817Z,96694.09
2024-01-07T19:16:30.350Z,96692.63
2024-01-07T19:18:32.745Z,96708.16
2024-01-07T19:20:34.437Z,96698.69
2024-01-07T19:22:36.082Z,96700.28
2024-01-07T19:24:37.713Z,96704.34
2024-01-07T19:26:40.291Z,96702.03
2024-01-07T19:28:42.932Z,96709.72
2024-01-07T19:30:46.070Z,96714.38
2024-01-07T19:32:47.751Z,96712.22
2024-01-07T19:34:49.400Z,96714.50
2024-01-07T19:36:51.110Z,96723.31
2024-01-07T19:38:52.609Z,96721.03
2024-01-07T19:40:54.130Z,96725.75
2024-01-07T19:42:55.760Z,96717.19
2024-01-07T19:44:57.289Z,96723.56
2024-01-07T19:47:00.212Z,96726.41
2024-01-07T19:49:03.481Z,96723.69
2024-01-07T19:51:05.783Z,96725.41
2024-01-07T19:53:13.405Z,96732.09
2024-01-07T19:55:17.904Z,96731.81
2024-01-07T19:57:19.394Z,96728.31
2024-01-07T19:59:21.127Z,96740.44
2024-01-07T20:01:22.853Z,96738.03
2024-01-07T20:03:25.808Z,96741.16
2024-01-07T20:05:27.520Z,96733.09
2024-01-07T20:07:29.227Z,96740.91
2024-01-07T20:09:30.785Z,96737.09
2024-01-07T20:11:32.774Z,96737.31
2024-01-07T20:13:35.217Z,96740.69
2024-01-07T20:15:36.968Z,96742.97
2024-01-07T20:17:38.772Z,96745.25
2024-01-07T20:19:41.754Z,96747.16
2024-01-07T20:21:43.653Z,96750.66
2024-01-07T20:23:45.158Z,96755.94
2024-01-07T20:25:46.992Z,96747.16
2024-01-07T20:27:49.970Z,96750.59
2024-01-07T20:29:52.048Z,96753.34
2024-01-07T20:31:53.807Z,96756.47
2024-01-07T20:33:55.579Z,96759.00
2024-01-07T20:35:58.768Z,96757.56
2024-01-07T20:38:04.181Z,96754.00
2024-01-07T20:40:08.291Z,96757.28
2024-01-07T20:42:18.707Z,96760.44
2024-01-07T20:44:29.131Z,96755.59
2024-01-07T20:46:30.941Z,96759.00
2024-01-07T20:48:33.001Z,96766.41
2024-01-07T20:50:35.766Z,96761.91
2024-01-07T20:52:38.688Z,96774.03
2024-01-07T20:54:40.221Z,96763.19
2024-01-07T20:56:43.010Z,96767.47
2024-01-07T20:58:44.965Z,96754.19
2024-01-07T21:00:46.625Z,96767.13
2024-01-07T21:02:48.790Z,96765.75
2024-01-07T21:04:50.902Z,96765.63
2024-01-07T21:06:52.461Z,96775.06
2024-01-07T21:08:55.408Z,96774.34
2024-01-07T21:10:56.954Z,96771.84
2024-01-07T21:12:59.137Z,96778.44
2024-01-07T21:15:01.036Z,96783.13
2024-01-07T21:17:02.576Z,96784.06
2024-01-07T21:19:04.237Z,96775.72
2024-01-07T21:21:06.113Z,96790.44
2024-01-07T21:23:09.041Z,96793.66
2024-01-07T21:25:12.239Z,96788.94
2024-01-07T21:27:13.774Z,96792.09
2024-01-07T21:29:15.383Z,96791.38
2024-01-07T21:31:19.472Z,96799.72
2024-01-07T21:33:21.455Z,96794.72
2024-01-07T21:35:23.987Z,96793.53
2024-01-07T21:37:25.873Z,96785.69
2024-01-07T21:39:27.409Z,96807.50
2024-01-07T21:41:30.357Z,96808.69
2024-01-07T21:43:31.982Z,96808.50
2024-01-07T21:45:33.535Z,96804.94
2024-01-07T21:47:35.272Z,96805.25
2024-01-07T21:49:36.865Z,96805.16
2024-01-07T21:51:38.536Z,96804.72
2024-01-07T21:53:40.114Z,96815.38
2024-01-07T21:55:41.767Z,96812.13
2024-01-07T21:57:44.692Z,96814.53
2024-01-07T21:59:46.424Z,96805.56
2024-01-07T22:01:48.264Z,96818.91
2024-01-07T22:03:49.843Z,96811.91
2024-01-07T22:05:52.090Z,96816.81
2024-01-07T22:07:53.655Z,96815.56
2024-01-07T22:09:55.418Z,96815.56
2024-01-07T22:11:58.156Z,96822.06
2024-01-07T22:14:01.158Z,96823.72
2024-01-07T22:16:02.749Z,96825.72
2024-01-07T22:18:04.872Z,96827.38
2024-01-07T22:20:08.250Z,96816.41
2024-01-07T22:22:09.809Z,96825.41
2024-01-07T22:24:11.490Z,96814.34
2024-01-07T22:26:13.107Z,96824.56
2024-01-07T22:28:14.706Z,96826.19
2024-01-07T22:30:17.963Z,96819.13
2024-01-07T22:32:19.630Z,96828.91
2024-01-07T22:34:21.274Z,96835.94
2024-01-07T22:36:22.860Z,96834.06
2024-01-07T22:38:24.499Z,96834.53
2024-01-07T22:40:26.030Z,96830.69
2024-01-07T22:42:27.617Z,96824.94
2024-01-07T22:44:29.301Z,96836.84
2024-01-07T22:46:32.258Z,96841.63
2024-01-07T22:48:33.853Z,96836.81
2024-01-07T22:50:35.552Z,96843.50
2024-01-07T22:52:37.200Z,96839.34
2024-01-07T22:54:39.811Z,96843.47
2024-01-07T22:56:41.662Z,96841.69
2024-01-07T22:58:43.232Z,96844.97
2024-01-07T23:00:44.793Z,96843.31
2024-01-07T23:02:47.833Z,96840.69
2024-01-07T23:04:49.760Z,96844.19
2024-01-07T23:06:51.451Z,96842.91
2024-01-07T23:08:53.049Z,96849.25
2024-01-07T23:10:54.713Z,96843.56
2024-01-07T23:12:56.257Z,96847.13
2024-01-07T23:14:57.872Z,96858.19
2024-01-07T23:16:59.946Z,96849.19
2024-01-07T23:19:03.236Z,96852.03
2024-01-07T23:21:08.804Z,96858.56
2024-01-07T23:23:12.283Z,96854.00
2024-01-07T23:25:13.848Z,96850.13
2024-01-07T23:27:15.403Z,96851.88
2024-01-07T23:29:16.942Z,96860.84
2024-01-07T23:31:18.588Z,96860.63
2024-01-07T23:33:20.279Z,96858.75
2024-01-07T23:35:23.236Z,96843.28
2024-01-07T23:37:24.918Z,96855.00
2024-01-07T23:39:26.436Z,96856.09
2024-01-07T23:41:28.085Z,96856.09
2024-01-07T23:43:29.771Z,96849.81
2024-01-07T23:45:31.378Z,96846.44
2024-01-07T23:47:35.561Z,96844.41
2024-01-07T23:49:39.269Z,96843.97
2024-01-07T23:51:42.124Z,96853.34
2024-01-07T23:53:43.660Z,96850.19
2024-01-07T23:55:45.264Z,96845.84
2024-01-07T23:57:46.786Z,96851.03